CYAW/YAW METAR and TAF weather

Enter ICAO airport designator
Station Type Date Time Source
CYAW METAR 2021/06/22 21:39 UTC NOAA

CYAW 222139Z 14005KT 0SM FG VV001 18/17 A2973 RMK FG8 DA995FT LAST OBS/NEXT 230900 UTC SLP066


Station Type Date Time Source
CYAW Decoded METAR 2021/06/22 21:39 UTC NOAA

Shearwater, N. S., Canada (CYAW) 44-38N 063-30W 51M
Jun 22, 2021 - 05:39 PM EDT / 2021.06.22 2139 UTC
Wind: from the SE (140 degrees) at 6 MPH (5 KT):0
Visibility: less than 1 mile:0
Sky conditions: obscured
Weather: fog
Temperature: 64 F (18 C)
Dew Point: 62 F (17 C)
Relative Humidity: 93%
Pressure (altimeter): 29.73 in. Hg (1006 hPa)
ob: CYAW 222139Z 14005KT 0SM FG VV001 18/17 A2973 RMK FG8 DA995FT LAST OBS/NEXT 230900 UTC SLP066
cycle: 21

Station Type Date Time Source
CYAW TAF 2021/06/22 21:45 UTC NOAA

TAF
AMD CYAW 222141Z 2221/2306 FCST CNCLD DUE END OF FLYING PROGRAM
RMK NXT FCST WILL BE ISSUED AT 231015Z

Example: see airport list